Accueil
METAR-TAF:

METAR-TAF

Aéroports :

Cranfield, Angleterre

latitude: 52-04N, longitude: 000-37W, altitude: 111 m

Observation

Le bulletin a été fait il y a 1 heure et 8 minutes, à 17:20 UTC
Vent 4 kt de ouest
Température 3°C
Humidité 93%
Pression 1019 hPa
Visibilité 10 km ou plus
Quelques nuages à une hauteur de 1400 ft
Nuages épars à une hauteur de 3700 ft

METAR: EGTC 161720Z 27004KT 9999 FEW014 SCT037 03/02 Q1019

Heure: 18:28 (18:28 UTC)

Prévision

Le bulletin a été fait il y a 4 heures et 27 minutes, à 14:01 UTC
Prévision valable du 16 à 15 UTC au 16 à 18 UTC
Vent 7 kt de ouest
Visibilité 10 km ou plus
Nuages épars à une hauteur de 2000 ft
Temporairement
du 16 à 15 UTC au 16 à 18 UTC
Visibilité: 9000 m
Nuages fragmentés à une hauteur de 1000 ft

TAF: EGTC 161401Z 1615/1618 28007KT 9999 SCT020 TEMPO 1615/1618 9000 BKN010

Observations et prévisions météorologiques de plus de 4000 aéroports (messages METAR et TAF).

Les stations disponibles sont représentées par des disques jaunes et rouges sur la carte.

Passer la souris dessus pour voir le nom de la station.

Cliquer dessus pour voir les observations et prévisions météorologiques.

Pour changer de carte: cliquez sur les boutons verts avec une croix noire pour zoomer, sur le bouton vert avec un tiret pour effectuer un zoom arrière, ou sur les flèches vertes pour les cartes adjacentes.


METAR-TAF: